Time;durP1;ratioP1;P1;durP2;ratioP2;P2;SDS_P1;SDS_P2;PMS_P1;PMS_P2;Temp;Humidity;BMP_temperature;BMP_pressure;BME280_temperature;BME280_humidity;BME280_pressure;Samples;Min_cycle;Max_cycle;Signal;HPM_P1;HPM_P2
2022/03/12 00:01:04;;;;;;;0.60;0.10;;;7.80;99.90;;;;;;5078003;28;20532;-78
2022/03/12 00:03:34;;;;;;;0.60;0.10;;;7.80;99.90;;;;;;5079838;28;20471;-78
2022/03/12 00:06:03;;;;;;;0.60;0.10;;;7.80;99.90;;;;;;5079829;28;21006;-78
2022/03/12 00:08:41;;;;;;;0.57;0.10;;;7.70;99.90;;;;;;5079804;28;20471;-78
2022/03/12 00:11:10;;;;;;;0.60;0.10;;;7.70;99.90;;;;;;5079204;28;20443;-78
2022/03/12 00:13:38;;;;;;;0.50;0.10;;;7.70;99.90;;;;;;5079497;28;20540;-78
2022/03/12 00:16:08;;;;;;;0.60;0.10;;;7.80;99.90;;;;;;5060618;28;20451;-78
2022/03/12 00:18:38;;;;;;;0.50;0.10;;;7.80;99.90;;;;;;5060311;28;20464;-78
2022/03/12 00:21:07;;;;;;;0.60;0.10;;;7.80;99.90;;;;;;5060109;28;20445;-78
2022/03/12 00:23:35;;;;;;;0.97;0.87;;;7.80;99.90;;;;;;5061173;28;20528;-78
2022/03/12 00:26:04;;;;;;;0.60;0.10;;;7.70;99.90;;;;;;5077438;28;20472;-77
2022/03/12 00:28:32;;;;;;;0.60;0.10;;;7.70;99.90;;;;;;5078335;28;20472;-78
2022/03/12 00:31:00;;;;;;;0.60;0.10;;;7.70;99.90;;;;;;5078515;28;20456;-78
2022/03/12 00:33:28;;;;;;;0.60;0.10;;;7.60;99.90;;;;;;5077661;28;20468;-78
2022/03/12 00:35:58;;;;;;;0.60;0.10;;;7.50;99.90;;;;;;5075990;28;20942;-78
2022/03/12 00:38:26;;;;;;;0.53;0.10;;;7.50;99.90;;;;;;5078284;28;20484;-78
2022/03/12 00:41:04;;;;;;;0.50;0.10;;;7.50;99.90;;;;;;5077092;28;20475;-78
2022/03/12 00:43:32;;;;;;;0.60;0.10;;;7.50;99.90;;;;;;5075149;28;20433;-78
2022/03/12 00:46:00;;;;;;;0.60;0.10;;;7.50;99.90;;;;;;5075797;28;20498;-78
2022/03/12 00:48:28;;;;;;;1.23;1.13;;;7.40;99.90;;;;;;5075936;28;20574;-78
2022/03/12 00:51:07;;;;;;;0.70;0.50;;;7.30;99.90;;;;;;5071257;28;20417;-78
2022/03/12 00:53:36;;;;;;;0.60;0.10;;;7.30;99.90;;;;;;5078331;28;20448;-77
2022/03/12 00:56:05;;;;;;;0.60;0.10;;;7.30;99.90;;;;;;5079645;28;20437;-78
2022/03/12 00:58:34;;;;;;;0.60;0.10;;;7.20;99.90;;;;;;5077675;28;20543;-77
2022/03/12 01:01:02;;;;;;;0.60;0.10;;;7.20;99.90;;;;;;5079685;28;20458;-79
2022/03/12 01:03:30;;;;;;;0.60;0.10;;;7.20;99.90;;;;;;5080793;28;20448;-78
2022/03/12 01:06:01;;;;;;;0.50;0.10;;;7.30;99.90;;;;;;5095880;28;20467;-76
2022/03/12 01:08:31;;;;;;;0.57;0.10;;;7.20;99.90;;;;;;5095888;28;20464;-78
2022/03/12 01:11:02;;;;;;;3.43;3.23;;;7.10;99.90;;;;;;5082687;28;20456;-77
2022/03/12 01:13:30;;;;;;;0.60;0.10;;;9.10;99.90;;;;;;5079613;28;20539;-78
2022/03/12 01:15:58;;;;;;;1.17;0.97;;;7.20;99.90;;;;;;5083145;28;20440;-78
2022/03/12 01:18:28;;;;;;;0.53;0.10;;;7.10;99.90;;;;;;5082117;28;20503;-77
2022/03/12 01:21:06;;;;;;;0.60;0.10;;;7.10;99.90;;;;;;5084242;28;20459;-78
2022/03/12 01:23:35;;;;;;;0.60;0.10;;;7.10;99.90;;;;;;5089409;28;20458;-77
2022/03/12 01:26:03;;;;;;;0.60;0.10;;;7.00;99.90;;;;;;5086877;28;20472;-77
2022/03/12 01:28:31;;;;;;;0.60;0.30;;;7.00;99.90;;;;;;5086225;28;20471;-77
2022/03/12 01:31:00;;;;;;;0.60;0.10;;;7.00;99.90;;;;;;5089057;28;20527;-77
2022/03/12 01:33:28;;;;;;;0.50;0.10;;;7.00;99.90;;;;;;5088908;28;20474;-78
2022/03/12 01:35:57;;;;;;;0.50;0.10;;;7.00;99.90;;;;;;5080254;28;20445;-77
2022/03/12 01:38:31;;;;;;;0.60;0.10;;;7.00;99.90;;;;;;5078056;28;20476;-77
2022/03/12 01:41:02;;;;;;;0.60;0.20;;;6.90;99.90;;;;;;5078126;28;20464;-77
2022/03/12 01:43:32;;;;;;;0.57;0.10;;;7.00;99.90;;;;;;5077006;28;20454;-77
2022/03/12 01:46:01;;;;;;;0.60;0.10;;;6.90;99.90;;;;;;5076042;28;20458;-77
2022/03/12 01:48:30;;;;;;;0.50;0.10;;;6.90;99.90;;;;;;5077236;28;20556;-77
2022/03/12 01:50:59;;;;;;;0.60;0.10;;;6.90;99.90;;;;;;5078541;28;20453;-77
2022/03/12 01:53:27;;;;;;;0.50;0.10;;;6.80;99.90;;;;;;5077199;28;20479;-78
2022/03/12 01:55:56;;;;;;;0.50;0.10;;;6.80;99.90;;;;;;5077193;28;20448;-78
2022/03/12 01:58:26;;;;;;;0.60;0.10;;;6.80;99.90;;;;;;5076470;28;20467;-78
2022/03/12 02:00:57;;;;;;;0.60;0.10;;;6.80;99.90;;;;;;5076689;28;20451;-78
2022/03/12 02:03:29;;;;;;;0.60;0.20;;;6.70;99.90;;;;;;5077845;28;20454;-78
2022/03/12 02:05:57;;;;;;;5.20;4.90;;;6.80;99.90;;;;;;5075090;28;20459;-78
2022/03/12 02:08:25;;;;;;;0.50;0.10;;;6.90;99.90;;;;;;5076930;28;20557;-78
2022/03/12 02:10:57;;;;;;;0.60;0.10;;;6.80;99.90;;;;;;5077434;28;20449;-78
2022/03/12 02:13:29;;;;;;;0.60;0.10;;;6.80;99.90;;;;;;5076524;28;20931;-78
2022/03/12 02:16:07;;;;;;;0.60;0.10;;;6.80;99.90;;;;;;5076966;28;20479;-78
2022/03/12 02:18:37;;;;;;;1.37;1.27;;;6.80;99.90;;;;;;5077204;28;20469;-78
2022/03/12 02:21:05;;;;;;;0.60;0.10;;;6.80;99.90;;;;;;5077394;28;20970;-78
2022/03/12 02:23:46;;;;;;;0.60;0.10;;;6.80;99.90;;;;;;5074999;28;20444;-79
2022/03/12 02:26:14;;;;;;;0.60;0.10;;;6.70;99.90;;;;;;5073331;28;20454;-77
2022/03/12 02:28:42;;;;;;;0.60;0.10;;;6.70;99.90;;;;;;5074503;28;20478;-78
2022/03/12 02:31:11;;;;;;;0.60;0.10;;;6.70;99.90;;;;;;5074665;28;20452;-78
2022/03/12 02:33:39;;;;;;;0.50;0.10;;;6.70;99.90;;;;;;5075238;28;20958;-78
2022/03/12 02:36:07;;;;;;;0.50;0.10;;;6.70;99.90;;;;;;5077197;28;20458;-78
2022/03/12 02:38:35;;;;;;;0.50;0.10;;;6.70;99.90;;;;;;5075063;28;20498;-78
2022/03/12 02:41:10;;;;;;;0.60;0.10;;;6.60;99.90;;;;;;5076146;28;20448;-78
2022/03/12 02:43:43;;;;;;;0.60;0.10;;;6.70;99.90;;;;;;5070442;28;20439;-77
2022/03/12 02:46:13;;;;;;;0.50;0.10;;;6.70;99.90;;;;;;5073148;28;20538;-78
2022/03/12 02:48:43;;;;;;;0.60;0.10;;;6.70;99.90;;;;;;5075006;28;20489;-77
2022/03/12 02:51:11;;;;;;;0.50;0.10;;;6.60;99.90;;;;;;5075876;28;20439;-77
2022/03/12 02:53:39;;;;;;;0.50;0.10;;;6.60;99.90;;;;;;5076412;28;20451;-78
2022/03/12 02:56:08;;;;;;;0.57;0.10;;;6.50;99.90;;;;;;5073112;28;20452;-78
2022/03/12 02:58:36;;;;;;;0.60;0.10;;;6.50;99.90;;;;;;5076229;28;20464;-78
2022/03/12 03:01:05;;;;;;;0.50;0.10;;;6.50;99.90;;;;;;5076281;28;20442;-79
2022/03/12 03:03:37;;;;;;;0.90;0.30;;;6.50;99.90;;;;;;5075812;28;20516;-78
2022/03/12 03:06:05;;;;;;;0.60;0.10;;;6.60;99.90;;;;;;5076258;28;20479;-76
2022/03/12 03:08:36;;;;;;;0.60;0.10;;;6.60;99.90;;;;;;5076826;28;20483;-78
2022/03/12 03:11:12;;;;;;;0.50;0.10;;;6.60;99.90;;;;;;5075411;28;20442;-78
2022/03/12 03:13:44;;;;;;;0.60;0.20;;;6.60;99.90;;;;;;5076493;28;20442;-77
2022/03/12 03:16:21;;;;;;;0.50;0.10;;;6.60;99.90;;;;;;5078378;28;20439;-77
2022/03/12 03:18:53;;;;;;;0.50;0.10;;;6.50;99.90;;;;;;5078387;28;20558;-77
2022/03/12 03:21:23;;;;;;;0.60;0.20;;;6.50;99.90;;;;;;5078601;28;20446;-78
2022/03/12 03:23:53;;;;;;;0.60;0.20;;;6.50;99.90;;;;;;5076805;28;20443;-78
2022/03/12 03:26:35;;;;;;;0.50;0.10;;;6.40;99.90;;;;;;5073996;28;20497;-78
2022/03/12 03:29:03;;;;;;;0.50;0.10;;;6.50;99.90;;;;;;5076272;28;20488;-78
2022/03/12 03:31:31;;;;;;;0.60;0.10;;;6.50;99.90;;;;;;5085001;28;20523;-78
2022/03/12 03:33:58;;;;;;;0.60;0.20;;;6.50;99.90;;;;;;5086622;28;20443;-78
2022/03/12 03:36:26;;;;;;;0.50;0.10;;;6.60;99.90;;;;;;5090739;28;20448;-77
2022/03/12 03:38:54;;;;;;;0.60;0.10;;;6.60;99.90;;;;;;5111949;22;20492;-75
2022/03/12 03:41:23;;;;;;;0.50;0.10;;;6.50;99.90;;;;;;5062179;28;20447;-73
2022/03/12 03:43:53;;;;;;;0.60;0.10;;;6.40;99.90;;;;;;5056234;28;20439;-74
2022/03/12 03:46:23;;;;;;;0.50;0.20;;;6.50;99.90;;;;;;5055427;28;20890;-74
2022/03/12 03:48:52;;;;;;;0.60;0.10;;;6.50;99.90;;;;;;5055078;28;20514;-74
2022/03/12 03:51:21;;;;;;;0.50;0.20;;;6.50;99.90;;;;;;5054643;28;20458;-73
2022/03/12 03:53:50;;;;;;;0.60;0.10;;;6.40;99.90;;;;;;5055049;28;20449;-73
2022/03/12 03:56:20;;;;;;;0.60;0.10;;;6.40;99.90;;;;;;5054905;28;20455;-74
2022/03/12 03:58:49;;;;;;;0.50;0.10;;;6.30;99.90;;;;;;5054743;28;20460;-73
2022/03/12 04:01:20;;;;;;;0.60;0.10;;;6.30;99.90;;;;;;5055019;28;20449;-72
2022/03/12 04:03:49;;;;;;;2.77;2.67;;;6.30;99.90;;;;;;5054623;28;20826;-74
2022/03/12 04:06:19;;;;;;;0.50;0.10;;;6.40;99.90;;;;;;5054588;28;20448;-72
2022/03/12 04:08:47;;;;;;;0.60;0.40;;;6.30;99.90;;;;;;5054736;28;20578;-71
2022/03/12 04:11:17;;;;;;;0.60;0.10;;;6.30;99.90;;;;;;5054810;28;20466;-74
2022/03/12 04:13:46;;;;;;;0.50;0.10;;;6.30;99.90;;;;;;5055166;28;20456;-72
2022/03/12 04:16:16;;;;;;;0.50;0.10;;;6.20;99.90;;;;;;5054413;28;20459;-72
2022/03/12 04:18:46;;;;;;;0.50;0.10;;;6.20;99.90;;;;;;5062545;28;20473;-72
2022/03/12 04:21:16;;;;;;;0.50;0.10;;;6.20;99.90;;;;;;5056491;28;20441;-72
2022/03/12 04:23:45;;;;;;;0.50;0.10;;;6.30;99.90;;;;;;5054348;28;20459;-74
2022/03/12 04:26:14;;;;;;;0.50;0.10;;;6.30;99.90;;;;;;5054054;28;20454;-71
2022/03/12 04:28:42;;;;;;;0.50;0.10;;;6.20;99.90;;;;;;5054297;28;20492;-72
2022/03/12 04:31:10;;;;;;;0.60;0.10;;;6.20;99.90;;;;;;5054756;28;20464;-75
2022/03/12 04:33:40;;;;;;;0.60;0.10;;;6.20;99.90;;;;;;5054585;28;20491;-73
2022/03/12 04:36:09;;;;;;;0.60;0.10;;;6.20;99.90;;;;;;5054590;28;20441;-74
2022/03/12 04:38:37;;;;;;;0.60;0.10;;;6.20;99.90;;;;;;5034307;28;20494;-73
2022/03/12 04:41:06;;;;;;;0.60;0.10;;;6.10;99.90;;;;;;5034369;28;20449;-74
2022/03/12 04:43:35;;;;;;;0.60;0.10;;;;;;;;;;5033975;28;20474;-73
2022/03/12 04:46:03;;;;;;;0.50;0.10;;;6.20;99.90;;;;;;5033890;28;20445;-74
2022/03/12 04:48:32;;;;;;;0.50;0.10;;;6.10;99.90;;;;;;5032991;28;20560;-73
2022/03/12 04:51:01;;;;;;;0.60;0.10;;;6.10;99.90;;;;;;5033801;28;20536;-72
2022/03/12 04:53:29;;;;;;;0.50;0.10;;;6.00;99.90;;;;;;5035231;28;20469;-72
2022/03/12 04:55:58;;;;;;;0.60;0.10;;;6.00;99.90;;;;;;5033025;28;20475;-73
2022/03/12 04:58:26;;;;;;;0.60;0.10;;;5.90;99.90;;;;;;5033691;28;20474;-72
2022/03/12 05:00:54;;;;;;;0.60;0.10;;;5.90;99.90;;;;;;5033757;28;20447;-71
2022/03/12 05:03:24;;;;;;;0.50;0.10;;;5.80;99.90;;;;;;5033679;28;20552;-72
2022/03/12 05:05:53;;;;;;;0.50;0.10;;;5.80;99.90;;;;;;5033563;28;20496;-72
2022/03/12 05:08:24;;;;;;;0.60;0.20;;;5.80;99.90;;;;;;5033467;28;20566;-73
2022/03/12 05:10:54;;;;;;;0.60;0.10;;;5.70;99.90;;;;;;5042876;28;20975;-72
2022/03/12 05:13:24;;;;;;;0.53;0.10;;;5.70;99.90;;;;;;5053857;28;20846;-72
2022/03/12 05:15:54;;;;;;;0.60;0.20;;;5.70;99.90;;;;;;5053084;28;20548;-72
2022/03/12 05:18:23;;;;;;;0.50;0.10;;;5.70;99.90;;;;;;5052980;28;20469;-72
2022/03/12 05:20:51;;;;;;;0.50;0.13;;;5.70;99.90;;;;;;5053151;28;20448;-72
2022/03/12 05:23:21;;;;;;;0.50;0.10;;;5.60;99.90;;;;;;5053070;28;20443;-73
2022/03/12 05:25:51;;;;;;;0.50;0.10;;;5.60;99.90;;;;;;5058642;28;20506;-72
2022/03/12 05:28:22;;;;;;;0.50;0.10;;;5.60;99.90;;;;;;5041219;28;20482;-72
2022/03/12 05:30:53;;;;;;;0.60;0.10;;;5.60;99.90;;;;;;5033166;28;20486;-72
2022/03/12 05:33:20;;;;;;;0.50;0.20;;;5.50;99.90;;;;;;5050568;28;20487;-73
2022/03/12 05:35:51;;;;;;;0.50;0.10;;;5.50;99.90;;;;;;5052746;28;20455;-72
2022/03/12 05:38:19;;;;;;;0.50;0.10;;;5.50;99.90;;;;;;5053064;28;20521;-73
2022/03/12 05:40:50;;;;;;;0.50;0.20;;;5.50;99.90;;;;;;5053247;28;20463;-74
2022/03/12 05:43:18;;;;;;;0.50;0.10;;;5.50;99.90;;;;;;5051569;28;20460;-74
2022/03/12 05:45:51;;;;;;;0.50;0.10;;;5.40;99.90;;;;;;5052403;28;20496;-74
2022/03/12 05:48:20;;;;;;;0.50;0.10;;;5.40;99.90;;;;;;5052964;28;20486;-73
2022/03/12 05:50:50;;;;;;;0.77;0.77;;;5.40;99.90;;;;;;5053509;28;20449;-74
2022/03/12 05:53:19;;;;;;;0.60;0.10;;;5.30;99.90;;;;;;5053329;28;20450;-73
2022/03/12 05:55:49;;;;;;;0.60;0.10;;;5.30;99.90;;;;;;5052389;28;20444;-72
2022/03/12 05:58:19;;;;;;;0.53;0.10;;;5.30;99.90;;;;;;5046961;28;20799;-70
2022/03/12 06:00:48;;;;;;;0.50;0.10;;;5.30;99.90;;;;;;5031065;28;20540;-72
2022/03/12 06:03:16;;;;;;;0.50;0.10;;;5.20;99.90;;;;;;5031720;28;20484;-73
2022/03/12 06:05:45;;;;;;;0.50;0.20;;;5.20;99.90;;;;;;5031755;28;20467;-72
2022/03/12 06:08:20;;;;;;;0.60;0.10;;;5.20;99.90;;;;;;5031566;28;20569;-73
2022/03/12 06:10:54;;;;;;;0.50;0.10;;;5.20;99.90;;;;;;5031828;28;20503;-74
2022/03/12 06:13:23;;;;;;;0.50;0.10;;;5.10;99.90;;;;;;5031917;28;20828;-73
2022/03/12 06:15:54;;;;;;;0.50;0.10;;;5.20;99.90;;;;;;5047417;28;20448;-72
2022/03/12 06:18:24;;;;;;;0.80;0.30;;;5.20;99.90;;;;;;5051464;28;20468;-72
2022/03/12 06:20:51;;;;;;;0.50;0.10;;;5.20;99.90;;;;;;5051974;28;20479;-73
2022/03/12 06:23:19;;;;;;;0.50;0.10;;;5.20;99.90;;;;;;5052217;28;20449;-73
2022/03/12 06:25:49;;;;;;;0.50;0.10;;;5.20;99.90;;;;;;5063496;28;20957;-72
2022/03/12 06:28:17;;;;;;;0.50;0.10;;;5.20;99.90;;;;;;5070208;28;20918;-72
2022/03/12 06:30:45;;;;;;;0.50;0.20;;;5.20;99.90;;;;;;5058158;28;20495;-73
2022/03/12 06:33:14;;;;;;;1.53;1.43;;;5.20;99.90;;;;;;5051815;28;20457;-72
2022/03/12 06:35:43;;;;;;;0.50;0.10;;;5.30;99.90;;;;;;5051601;28;20479;-73
2022/03/12 06:38:11;;;;;;;0.50;0.10;;;5.30;99.90;;;;;;5054986;28;20474;-73
2022/03/12 06:40:39;;;;;;;0.50;0.10;;;5.30;99.90;;;;;;5055483;28;20444;-73
2022/03/12 06:43:11;;;;;;;0.50;0.10;;;5.30;99.90;;;;;;5052113;28;20448;-74
2022/03/12 06:45:39;;;;;;;0.60;0.30;;;5.30;99.90;;;;;;5051866;28;20939;-72
2022/03/12 06:48:07;;;;;;;0.50;0.10;;;5.30;99.90;;;;;;5050279;28;20558;-72
2022/03/12 06:50:34;;;;;;;0.50;0.10;;;5.30;99.90;;;;;;5047796;28;20979;-73
2022/03/12 06:53:02;;;;;;;0.60;0.10;;;5.40;99.90;;;;;;5031539;28;20449;-72
2022/03/12 06:55:31;;;;;;;0.60;0.20;;;5.40;99.90;;;;;;5031717;28;20445;-73
2022/03/12 06:57:59;;;;;;;0.60;0.10;;;5.40;99.90;;;;;;5031206;28;20460;-72
2022/03/12 07:00:31;;;;;;;0.50;0.10;;;5.40;99.90;;;;;;5031415;28;20452;-74
2022/03/12 07:02:59;;;;;;;0.50;0.10;;;5.40;99.90;;;;;;5031219;28;20456;-71
2022/03/12 07:05:28;;;;;;;0.50;0.10;;;5.40;99.90;;;;;;5042515;28;20582;-72
2022/03/12 07:07:56;;;;;;;0.50;0.10;;;5.50;99.90;;;;;;5050338;28;20464;-74
2022/03/12 07:10:24;;;;;;;0.50;0.10;;;5.50;99.90;;;;;;5051071;28;20484;-74
2022/03/12 07:12:52;;;;;;;0.50;0.10;;;5.50;99.90;;;;;;5055186;28;20970;-73
2022/03/12 07:15:21;;;;;;;0.50;0.10;;;5.60;99.90;;;;;;5054702;28;20449;-73
2022/03/12 07:17:51;;;;;;;0.60;0.20;;;5.60;99.90;;;;;;5055041;28;20471;-73
2022/03/12 07:20:19;;;;;;;0.50;0.10;;;5.60;99.90;;;;;;5054609;28;20447;-73
2022/03/12 07:22:47;;;;;;;0.50;0.10;;;5.70;99.90;;;;;;5035653;28;20452;-72
2022/03/12 07:25:17;;;;;;;0.50;0.10;;;5.70;99.90;;;;;;5049879;28;20440;-72
2022/03/12 07:27:45;;;;;;;0.50;0.10;;;5.70;99.90;;;;;;5075239;28;20504;-74
2022/03/12 07:30:15;;;;;;;0.60;0.10;;;5.70;99.90;;;;;;5075372;28;20517;-74
2022/03/12 07:32:45;;;;;;;0.60;0.10;;;5.80;99.90;;;;;;5075512;28;20443;-74
2022/03/12 07:35:16;;;;;;;0.50;0.10;;;6.00;99.90;;;;;;5075500;28;20446;-74
2022/03/12 07:37:46;;;;;;;0.80;0.50;;;6.10;99.90;;;;;;5050175;28;20576;-73
2022/03/12 07:40:15;;;;;;;0.60;0.17;;;6.10;99.90;;;;;;5052459;28;20440;-73
2022/03/12 07:42:44;;;;;;;0.60;0.10;;;6.10;99.90;;;;;;5055302;28;20447;-73
2022/03/12 07:45:12;;;;;;;0.60;0.10;;;6.10;99.90;;;;;;5055843;28;20455;-71
2022/03/12 07:47:40;;;;;;;0.57;0.10;;;6.20;99.90;;;;;;5055075;28;20467;-72
2022/03/12 07:50:10;;;;;;;0.50;0.10;;;6.20;99.90;;;;;;5054772;28;20481;-72
2022/03/12 07:52:39;;;;;;;0.50;0.10;;;6.20;99.90;;;;;;5051456;28;20457;-74
2022/03/12 07:55:09;;;;;;;0.60;0.10;;;6.20;99.90;;;;;;5035068;28;20839;-74
2022/03/12 07:57:37;;;;;;;0.60;0.10;;;6.30;99.90;;;;;;5048077;28;20469;-73
2022/03/12 08:00:06;;;;;;;0.50;0.10;;;6.30;99.90;;;;;;5054891;28;20450;-73
2022/03/12 08:02:34;;;;;;;0.50;0.10;;;6.40;99.90;;;;;;5054932;28;20557;-73
2022/03/12 08:05:02;;;;;;;0.60;0.10;;;6.40;99.90;;;;;;5054831;28;20449;-74
2022/03/12 08:07:32;;;;;;;0.60;0.10;;;6.50;99.90;;;;;;5054686;28;20472;-74
2022/03/12 08:10:01;;;;;;;0.60;0.10;;;6.50;99.90;;;;;;5053593;28;20491;-75
2022/03/12 08:12:31;;;;;;;0.50;0.10;;;6.60;99.90;;;;;;5059645;28;20562;-72
2022/03/12 08:15:00;;;;;;;0.50;0.10;;;6.70;99.90;;;;;;5055907;28;21018;-72
2022/03/12 08:17:28;;;;;;;0.60;0.10;;;;;;;;;;5057144;28;20464;-74
2022/03/12 08:19:56;;;;;;;0.60;0.10;;;6.70;99.90;;;;;;5062179;28;20536;-75
2022/03/12 08:22:23;;;;;;;0.90;0.37;;;6.80;99.90;;;;;;5053466;28;20443;-75
2022/03/12 08:24:51;;;;;;;0.53;0.10;;;6.90;99.90;;;;;;5055941;28;20438;-73
2022/03/12 08:27:21;;;;;;;0.60;0.27;;;;;;;;;;5063451;28;20451;-73
2022/03/12 08:29:50;;;;;;;1.80;1.70;;;7.00;99.90;;;;;;5065344;28;20472;-73
2022/03/12 08:32:18;;;;;;;0.60;0.30;;;7.00;99.90;;;;;;5057063;28;20451;-74
2022/03/12 08:34:46;;;;;;;0.50;0.10;;;7.10;99.90;;;;;;5057027;28;20465;-74
2022/03/12 08:37:14;;;;;;;0.50;0.10;;;7.10;99.90;;;;;;5065505;28;20445;-74
2022/03/12 08:39:42;;;;;;;0.60;0.10;;;;;;;;;;5062611;28;20880;-72
2022/03/12 08:42:10;;;;;;;0.60;0.10;;;;;;;;;;5066861;28;20459;-75
2022/03/12 08:44:40;;;;;;;0.60;0.23;;;7.20;99.90;;;;;;5059717;28;20451;-73
2022/03/12 08:47:08;;;;;;;6.10;1.20;;;7.50;99.90;;;;;;5067437;28;20527;-74
2022/03/12 08:49:36;;;;;;;0.60;0.10;;;7.60;99.90;;;;;;5060585;28;20477;-73
2022/03/12 08:52:05;;;;;;;0.60;0.40;;;7.60;99.90;;;;;;5060717;28;20559;-73
2022/03/12 08:54:33;;;;;;;0.90;0.50;;;7.70;99.90;;;;;;5064175;28;20458;-73
2022/03/12 08:57:02;;;;;;;0.60;0.10;;;7.70;99.90;;;;;;5041948;28;20449;-74
2022/03/12 08:59:29;;;;;;;0.60;0.10;;;7.70;99.90;;;;;;5060954;28;20487;-73
2022/03/12 09:02:03;;;;;;;0.60;0.10;;;7.80;99.90;;;;;;5057077;28;20782;-75
2022/03/12 09:04:34;;;;;;;0.60;0.10;;;7.80;99.90;;;;;;5055873;28;20777;-75
2022/03/12 09:07:02;;;;;;;0.60;0.10;;;7.90;99.90;;;;;;5052744;28;20475;-73
2022/03/12 09:09:31;;;;;;;0.60;0.10;;;7.90;99.90;;;;;;5059738;28;20441;-75
2022/03/12 09:11:58;;;;;;;0.60;0.10;;;7.90;99.90;;;;;;5064750;28;20465;-72
2022/03/12 09:14:28;;;;;;;0.90;0.40;;;7.90;99.90;;;;;;5051740;28;20506;-75
2022/03/12 09:16:56;;;;;;;0.60;0.10;;;8.00;99.90;;;;;;5067977;28;20527;-73
2022/03/12 09:19:26;;;;;;;0.60;0.10;;;8.10;99.90;;;;;;5071548;28;20475;-75
2022/03/12 09:21:53;;;;;;;0.60;0.10;;;8.20;99.90;;;;;;5063443;28;20440;-75
2022/03/12 09:24:21;;;;;;;0.60;0.10;;;8.20;99.90;;;;;;5060910;28;20456;-75
2022/03/12 09:26:49;;;;;;;0.60;0.10;;;8.20;99.90;;;;;;5054337;28;20488;-75
2022/03/12 09:29:17;;;;;;;0.60;0.10;;;8.30;99.90;;;;;;5054122;28;20469;-75
2022/03/12 09:31:45;;;;;;;0.60;0.10;;;8.30;99.90;;;;;;5047091;28;20482;-74
2022/03/12 09:34:13;;;;;;;0.60;0.10;;;8.40;99.90;;;;;;5055414;28;20478;-75
2022/03/12 09:36:42;;;;;;;0.60;0.10;;;8.40;99.90;;;;;;5053980;28;20447;-75
2022/03/12 09:39:10;;;;;;;0.60;0.10;;;8.60;99.90;;;;;;5097149;22;20481;-76
2022/03/12 09:41:40;;;;;;;0.60;0.10;;;8.60;99.90;;;;;;5087340;28;20440;-77
2022/03/12 09:44:08;;;;;;;0.60;0.10;;;8.70;99.90;;;;;;5093029;28;20432;-78
2022/03/12 09:46:40;;;;;;;0.60;0.10;;;8.80;99.90;;;;;;5094011;28;20471;-78
2022/03/12 09:49:11;;;;;;;0.60;0.10;;;8.90;99.90;;;;;;5093104;28;20742;-77
2022/03/12 09:51:39;;;;;;;0.60;0.10;;;9.00;99.90;;;;;;5086664;28;20484;-78
2022/03/12 09:54:08;;;;;;;0.60;0.10;;;9.00;99.90;;;;;;5077846;28;20534;-79
2022/03/12 09:56:37;;;;;;;0.60;0.10;;;9.10;99.90;;;;;;5083904;28;20472;-79
2022/03/12 09:59:06;;;;;;;0.60;0.10;;;9.30;99.90;;;;;;5082892;28;20480;-77
2022/03/12 10:01:34;;;;;;;0.60;0.10;;;9.40;99.90;;;;;;5062097;28;20446;-77
2022/03/12 10:04:03;;;;;;;0.60;0.13;;;9.40;99.90;;;;;;5091744;28;20441;-78
2022/03/12 10:06:31;;;;;;;0.60;0.50;;;9.50;99.90;;;;;;5083144;28;20499;-80
2022/03/12 10:08:59;;;;;;;0.60;0.20;;;10.20;99.90;;;;;;5093285;28;20465;-79
2022/03/12 10:11:28;;;;;;;0.60;0.10;;;9.60;99.90;;;;;;5089234;28;20548;-77
2022/03/12 10:13:56;;;;;;;0.60;0.10;;;9.60;99.90;;;;;;5090196;28;20475;-79
2022/03/12 10:16:25;;;;;;;0.60;0.10;;;9.60;99.90;;;;;;5083560;28;20447;-81
2022/03/12 10:18:56;;;;;;;0.60;0.10;;;9.70;99.90;;;;;;5085799;28;21146;-80
2022/03/12 10:21:24;;;;;;;0.60;0.10;;;9.80;99.90;;;;;;5086611;28;20542;-80
2022/03/12 10:23:52;;;;;;;0.60;0.10;;;9.90;99.90;;;;;;5104204;28;20818;-78
2022/03/12 10:26:21;;;;;;;0.60;0.10;;;10.00;99.90;;;;;;5086425;28;20441;-79
2022/03/12 10:28:50;;;;;;;0.60;0.10;;;10.30;99.90;;;;;;5088056;28;20450;-77
2022/03/12 10:31:19;;;;;;;0.60;0.10;;;10.30;99.90;;;;;;5070652;28;20474;-79
2022/03/12 10:33:48;;;;;;;0.60;0.10;;;10.40;99.90;;;;;;5080913;28;20803;-79
2022/03/12 10:36:18;;;;;;;0.60;0.10;;;10.50;99.90;;;;;;5078335;28;20438;-79
2022/03/12 10:38:48;;;;;;;0.60;0.10;;;10.60;99.90;;;;;;5080272;28;20456;-79
2022/03/12 10:41:17;;;;;;;0.60;0.10;;;10.60;99.90;;;;;;5084980;28;20445;-75
2022/03/12 10:43:47;;;;;;;0.60;0.10;;;10.60;99.90;;;;;;5087878;28;20547;-78
2022/03/12 10:46:21;;;;;;;0.60;0.10;;;10.60;99.90;;;;;;5081429;28;20433;-78
2022/03/12 10:48:54;;;;;;;0.60;0.10;;;10.80;99.90;;;;;;5088883;28;20437;-79
2022/03/12 10:51:30;;;;;;;0.60;0.10;;;10.80;99.90;;;;;;5087130;28;20479;-78
2022/03/12 10:54:04;;;;;;;0.60;0.10;;;10.90;99.90;;;;;;5086099;28;20980;-79
2022/03/12 10:56:43;;;;;;;0.60;0.10;;;11.00;99.90;;;;;;5090017;28;20443;-80
2022/03/12 10:59:15;;;;;;;0.60;0.10;;;11.10;99.90;;;;;;5092125;28;20454;-77
2022/03/12 11:01:48;;;;;;;0.60;0.20;;;11.10;99.90;;;;;;5089592;28;20448;-79
2022/03/12 11:04:22;;;;;;;0.60;0.10;;;11.10;99.90;;;;;;5082852;28;20437;-80
2022/03/12 11:06:52;;;;;;;0.60;0.47;;;11.20;99.90;;;;;;5087354;28;20918;-80
2022/03/12 11:09:35;;;;;;;0.83;0.77;;;11.30;99.90;;;;;;5080614;28;20476;-78
2022/03/12 11:12:04;;;;;;;0.60;0.10;;;11.30;99.90;;;;;;5080455;28;20484;-79
2022/03/12 11:14:32;;;;;;;0.60;0.10;;;11.40;99.90;;;;;;5084547;28;20465;-81
2022/03/12 11:17:03;;;;;;;0.60;0.43;;;11.30;99.90;;;;;;5082574;28;20510;-78
2022/03/12 11:19:42;;;;;;;0.60;0.10;;;11.40;99.90;;;;;;5085719;28;20472;-77
2022/03/12 11:22:12;;;;;;;0.60;0.10;;;11.50;99.90;;;;;;5083915;28;20445;-78
2022/03/12 11:24:45;;;;;;;0.60;0.10;;;11.50;99.90;;;;;;5078907;28;20481;-79
2022/03/12 11:27:22;;;;;;;0.60;0.10;;;11.60;99.90;;;;;;5078981;28;20441;-78
2022/03/12 11:29:58;;;;;;;0.60;0.10;;;11.80;99.90;;;;;;5079644;28;20482;-73
2022/03/12 11:32:35;;;;;;;0.60;0.10;;;11.90;99.90;;;;;;5077538;28;20485;-77
2022/03/12 11:35:06;;;;;;;0.60;0.10;;;11.90;99.90;;;;;;5077954;28;20535;-78
2022/03/12 11:37:36;;;;;;;0.60;0.10;;;11.90;99.90;;;;;;5080864;28;20441;-78
2022/03/12 11:40:11;;;;;;;0.60;0.10;;;11.90;99.90;;;;;;5079996;28;20475;-79
2022/03/12 11:42:41;;;;;;;0.60;0.10;;;12.00;99.90;;;;;;5077589;28;20484;-77
2022/03/12 11:45:14;;;;;;;0.60;0.10;;;12.00;99.90;;;;;;5077246;28;20932;-79
2022/03/12 11:47:46;;;;;;;0.60;0.10;;;12.10;99.90;;;;;;5070108;28;20458;-76
2022/03/12 11:50:22;;;;;;;0.60;0.10;;;12.10;99.90;;;;;;5075238;28;20469;-77
2022/03/12 11:52:52;;;;;;;0.60;0.10;;;12.10;99.90;;;;;;5083831;28;20565;-78
2022/03/12 11:55:23;;;;;;;0.60;0.10;;;12.20;99.90;;;;;;5086488;28;20468;-75
2022/03/12 11:57:52;;;;;;;0.60;0.10;;;12.30;99.90;;;;;;5085355;28;20961;-77
2022/03/12 12:00:22;;;;;;;0.60;0.10;;;12.40;99.90;;;;;;5085030;28;20461;-78
2022/03/12 12:02:53;;;;;;;0.60;0.10;;;12.50;99.90;;;;;;5085566;28;20453;-79
2022/03/12 12:05:23;;;;;;;0.60;0.30;;;12.60;99.90;;;;;;5085401;28;20486;-77
2022/03/12 12:07:52;;;;;;;0.60;0.10;;;12.90;99.90;;;;;;5078894;28;20509;-83
2022/03/12 12:10:21;;;;;;;0.60;0.33;;;13.00;99.90;;;;;;5075958;28;20487;-82
2022/03/12 12:12:51;;;;;;;0.60;0.10;;;13.10;99.90;;;;;;5080526;28;20540;-82
2022/03/12 12:15:25;;;;;;;12.07;1.80;;;13.20;99.90;;;;;;5088454;28;20510;-79
2022/03/12 12:17:55;;;;;;;0.60;0.10;;;13.30;99.90;;;;;;5095248;28;20457;-79
2022/03/12 12:20:23;;;;;;;0.60;0.33;;;13.30;99.90;;;;;;5091705;28;20518;-79
2022/03/12 12:22:56;;;;;;;0.60;0.10;;;13.30;99.90;;;;;;5080019;28;20931;-79
2022/03/12 12:25:25;;;;;;;0.60;0.10;;;13.30;99.90;;;;;;5088247;28;20441;-81
2022/03/12 12:27:55;;;;;;;0.60;0.10;;;13.40;99.90;;;;;;5087219;28;20439;-79
2022/03/12 12:30:38;;;;;;;0.60;0.10;;;13.40;99.90;;;;;;5085067;28;20481;-77
2022/03/12 12:33:19;;;;;;;0.60;0.10;;;13.40;99.90;;;;;;5078691;28;20483;-79
2022/03/12 12:35:48;;;;;;;0.60;0.17;;;13.50;99.90;;;;;;5082305;28;20471;-78
2022/03/12 12:38:20;;;;;;;0.60;0.10;;;13.50;99.90;;;;;;5080084;28;20492;-77
2022/03/12 12:40:49;;;;;;;0.60;0.10;;;13.50;99.90;;;;;;5081265;28;20485;-78
2022/03/12 12:43:19;;;;;;;0.60;0.10;;;13.60;99.90;;;;;;5082112;28;20439;-77
2022/03/12 12:46:09;;;;;;;1.00;0.90;;;13.80;99.90;;;;;;5083113;28;20454;-77
2022/03/12 12:48:42;;;;;;;0.60;0.10;;;13.90;99.90;;;;;;5083922;28;20518;-79
2022/03/12 12:51:15;;;;;;;0.60;0.10;;;13.90;99.90;;;;;;5082066;28;20481;-78
2022/03/12 12:53:45;;;;;;;1.87;0.80;;;14.00;99.90;;;;;;5070034;28;20484;-79
2022/03/12 12:56:27;;;;;;;0.60;0.10;;;14.00;99.90;;;;;;5079123;28;20488;-78
2022/03/12 12:59:10;;;;;;;0.60;0.10;;;14.00;99.90;;;;;;5091547;28;20491;-78
2022/03/12 13:01:52;;;;;;;0.60;0.10;;;14.00;99.90;;;;;;5087203;28;20904;-79
2022/03/12 13:04:49;;;;;;;0.60;0.30;;;14.00;99.90;;;;;;5074076;28;20576;-76
2022/03/12 13:07:25;;;;;;;0.60;0.10;;;14.00;99.90;;;;;;5038295;28;20540;-76
2022/03/12 13:09:59;;;;;;;0.60;0.10;;;14.10;99.90;;;;;;5090932;28;20468;-79